Time;durP1;ratioP1;P1;durP2;ratioP2;P2;SDS_P1;SDS_P2;PMS_P1;PMS_P2;Temp;Humidity;BMP_temperature;BMP_pressure;BME280_temperature;BME280_humidity;BME280_pressure;Samples;Min_cycle;Max_cycle;Signal;HPM_P1;HPM_P2
2023/08/09 00:00:31;;;;;;;2.40;1.63;;;16.80;4.50;;;;;;4973123;28;20893;-69
2023/08/09 00:03:00;;;;;;;2.80;2.07;;;16.80;4.80;;;;;;4974095;28;20217;-71
2023/08/09 00:05:26;;;;;;;2.30;1.30;;;16.80;5.40;;;;;;4974503;28;20488;-71
2023/08/09 00:07:52;;;;;;;2.43;1.53;;;16.80;5.40;;;;;;4974517;28;20516;-71
2023/08/09 00:10:17;;;;;;;2.83;1.70;;;16.80;6.70;;;;;;4974450;28;20173;-71
2023/08/09 00:12:43;;;;;;;2.37;1.80;;;16.80;7.20;;;;;;4974023;28;20193;-69
2023/08/09 00:15:09;;;;;;;2.73;1.40;;;16.70;7.60;;;;;;4974207;28;20232;-70
2023/08/09 00:17:34;;;;;;;3.10;1.90;;;16.70;8.10;;;;;;4974213;28;20252;-70
2023/08/09 00:20:00;;;;;;;2.07;1.53;;;16.70;8.10;;;;;;4974239;28;20895;-70
2023/08/09 00:22:26;;;;;;;4.70;1.50;;;16.60;8.80;;;;;;4973727;28;20232;-70
2023/08/09 00:24:52;;;;;;;3.47;1.60;;;16.60;8.80;;;;;;4974165;28;20522;-70
2023/08/09 00:27:18;;;;;;;2.30;1.60;;;16.60;8.60;;;;;;4974122;28;20420;-69
2023/08/09 00:29:43;;;;;;;3.20;1.67;;;16.60;9.70;;;;;;4974029;28;20416;-70
2023/08/09 00:32:09;;;;;;;2.80;1.80;;;16.60;10.30;;;;;;4973661;28;20268;-70
2023/08/09 00:34:35;;;;;;;2.80;1.77;;;16.60;11.10;;;;;;4973933;28;20544;-70
2023/08/09 00:37:01;;;;;;;3.03;1.80;;;16.50;11.90;;;;;;4972777;28;20554;-71
2023/08/09 00:39:26;;;;;;;3.30;2.17;;;16.50;12.60;;;;;;4973910;28;20278;-70
2023/08/09 00:41:52;;;;;;;2.83;1.50;;;16.40;12.40;;;;;;4973456;28;20464;-69
2023/08/09 00:44:18;;;;;;;3.10;1.80;;;16.30;12.00;;;;;;4973740;28;20169;-69
2023/08/09 00:46:43;;;;;;;2.57;1.37;;;16.30;12.20;;;;;;4973652;28;20448;-70
2023/08/09 00:49:09;;;;;;;3.60;2.17;;;16.30;11.50;;;;;;4973827;28;20181;-70
2023/08/09 00:51:35;;;;;;;4.30;2.10;;;16.30;11.60;;;;;;4973426;28;20208;-70
2023/08/09 00:54:01;;;;;;;2.37;1.57;;;16.30;11.00;;;;;;4973663;28;20416;-69
2023/08/09 00:56:27;;;;;;;3.10;1.80;;;16.30;10.00;;;;;;4973634;28;20236;-70
2023/08/09 00:58:52;;;;;;;2.87;1.50;;;16.30;10.30;;;;;;4973443;28;20188;-70
2023/08/09 01:01:18;;;;;;;3.17;1.60;;;16.30;9.90;;;;;;4973243;28;20742;-71
2023/08/09 01:03:44;;;;;;;2.43;1.57;;;16.30;10.00;;;;;;4973128;28;20173;-69
2023/08/09 01:06:31;;;;;;;2.73;1.60;;;16.30;9.70;;;;;;4973390;28;20178;-70
2023/08/09 01:09:03;;;;;;;2.80;1.90;;;16.30;10.40;;;;;;4973462;28;20177;-70
2023/08/09 01:11:53;;;;;;;3.43;1.70;;;16.30;10.40;;;;;;4973092;28;21057;-70
2023/08/09 01:14:22;;;;;;;2.60;1.60;;;16.30;11.20;;;;;;4973411;28;20848;-69
2023/08/09 01:16:51;;;;;;;3.10;2.07;;;16.30;11.20;;;;;;4973399;28;20416;-70
2023/08/09 01:19:35;;;;;;;2.33;1.73;;;16.30;12.00;;;;;;4973236;28;20475;-70
2023/08/09 01:22:27;;;;;;;3.33;1.90;;;16.30;11.90;;;;;;4989103;23;20872;-72
2023/08/09 01:24:53;;;;;;;3.53;1.40;;;16.20;11.80;;;;;;4951611;29;20453;-72
2023/08/09 01:27:19;;;;;;;2.33;1.60;;;16.10;12.30;;;;;;4953867;29;20860;-72
2023/08/09 01:29:45;;;;;;;5.77;2.40;;;16.10;13.00;;;;;;4953889;29;20434;-72
2023/08/09 01:32:11;;;;;;;3.67;1.50;;;16.00;13.40;;;;;;4953532;29;20201;-72
2023/08/09 01:34:37;;;;;;;4.17;2.27;;;16.00;13.80;;;;;;4953716;29;20170;-72
2023/08/09 01:37:13;;;;;;;2.57;1.63;;;16.00;13.80;;;;;;4953924;29;20464;-72
2023/08/09 01:39:41;;;;;;;3.17;1.70;;;16.00;13.80;;;;;;4953862;29;20452;-72
2023/08/09 01:42:08;;;;;;;4.03;2.43;;;15.90;14.60;;;;;;4953380;29;21049;-72
2023/08/09 01:44:35;;;;;;;3.40;1.60;;;15.90;13.90;;;;;;4953878;29;20414;-72
2023/08/09 01:47:02;;;;;;;3.90;1.70;;;15.90;13.70;;;;;;4953759;29;20847;-71
2023/08/09 01:49:27;;;;;;;2.87;1.67;;;15.90;13.80;;;;;;4953724;29;20468;-72
2023/08/09 01:51:53;;;;;;;3.70;1.90;;;15.90;13.70;;;;;;4953440;29;20480;-72
2023/08/09 01:54:19;;;;;;;2.70;1.73;;;15.90;13.80;;;;;;4953689;29;20174;-72
2023/08/09 01:56:45;;;;;;;3.37;1.83;;;15.90;14.00;;;;;;4952377;29;20240;-72
2023/08/09 01:59:10;;;;;;;2.57;1.90;;;15.90;14.10;;;;;;4953696;29;20436;-72
2023/08/09 02:01:36;;;;;;;2.60;1.53;;;15.90;13.70;;;;;;4953142;29;20457;-72
2023/08/09 02:04:05;;;;;;;2.57;1.60;;;15.80;13.90;;;;;;4953621;28;20205;-72
2023/08/09 02:06:34;;;;;;;3.97;1.90;;;15.90;13.70;;;;;;4952232;28;20182;-72
2023/08/09 02:09:01;;;;;;;3.00;1.83;;;15.90;13.70;;;;;;4953564;29;20424;-72
2023/08/09 02:11:26;;;;;;;5.47;1.70;;;15.80;13.60;;;;;;4953292;29;20414;-72
2023/08/09 02:13:52;;;;;;;2.50;1.53;;;15.80;13.70;;;;;;4953441;29;20498;-72
2023/08/09 02:16:18;;;;;;;4.20;2.70;;;15.80;13.60;;;;;;4954179;28;20190;-72
2023/08/09 02:18:44;;;;;;;4.90;2.03;;;15.80;13.60;;;;;;4957161;29;20453;-72
2023/08/09 02:21:10;;;;;;;2.87;1.87;;;15.70;13.80;;;;;;4956954;29;20266;-72
2023/08/09 02:23:37;;;;;;;3.20;1.97;;;15.80;14.40;;;;;;4956721;29;20832;-72
2023/08/09 02:26:03;;;;;;;4.10;2.30;;;15.70;14.50;;;;;;4956953;28;20413;-72
2023/08/09 02:28:29;;;;;;;4.67;2.60;;;15.70;14.80;;;;;;4956918;29;20423;-72
2023/08/09 02:30:54;;;;;;;3.30;2.03;;;15.70;14.90;;;;;;4956916;29;20902;-71
2023/08/09 02:33:20;;;;;;;3.00;1.93;;;15.70;14.90;;;;;;4955305;29;20213;-72
2023/08/09 02:35:54;;;;;;;3.20;2.33;;;15.70;15.90;;;;;;4956929;29;20185;-71
2023/08/09 02:38:21;;;;;;;2.00;1.47;;;15.70;16.50;;;;;;4956832;29;20196;-72
2023/08/09 02:40:49;;;;;;;5.90;2.13;;;15.70;16.10;;;;;;4955538;28;20461;-72
2023/08/09 02:43:15;;;;;;;3.07;1.80;;;15.60;15.50;;;;;;4956276;29;20452;-72
2023/08/09 02:45:41;;;;;;;2.47;1.70;;;15.70;15.80;;;;;;4956644;29;20420;-72
2023/08/09 02:48:07;;;;;;;2.30;1.50;;;15.60;16.00;;;;;;4956619;29;20413;-72
2023/08/09 02:50:33;;;;;;;5.63;2.50;;;15.60;16.50;;;;;;4956725;29;20181;-72
2023/08/09 02:53:01;;;;;;;4.37;2.23;;;15.60;16.40;;;;;;4956262;29;20442;-72
2023/08/09 02:55:27;;;;;;;3.70;1.87;;;15.50;16.90;;;;;;4956969;29;20187;-72
2023/08/09 02:57:53;;;;;;;3.23;2.20;;;15.50;16.90;;;;;;4956418;29;20500;-72
2023/08/09 03:00:19;;;;;;;3.07;2.20;;;15.50;17.80;;;;;;4956288;29;20452;-71
2023/08/09 03:02:45;;;;;;;2.70;1.70;;;15.50;17.80;;;;;;4954827;28;20568;-72
2023/08/09 03:05:10;;;;;;;2.87;1.70;;;15.50;17.80;;;;;;4956371;29;20448;-72
2023/08/09 03:07:36;;;;;;;3.93;2.00;;;15.50;17.90;;;;;;4956408;29;20448;-72
2023/08/09 03:10:03;;;;;;;3.33;2.37;;;15.50;18.30;;;;;;4956341;29;20685;-72
2023/08/09 03:12:29;;;;;;;3.47;2.10;;;15.50;18.00;;;;;;4954685;29;20206;-72
2023/08/09 03:14:55;;;;;;;3.13;1.53;;;15.50;17.80;;;;;;4956309;29;20425;-72
2023/08/09 03:17:21;;;;;;;3.70;2.10;;;15.50;17.80;;;;;;4954923;29;20424;-72
2023/08/09 03:19:46;;;;;;;4.67;2.03;;;15.40;17.80;;;;;;4956200;29;20181;-72
2023/08/09 03:22:12;;;;;;;2.90;2.00;;;15.40;18.20;;;;;;4955639;29;20289;-72
2023/08/09 03:24:38;;;;;;;3.43;1.83;;;15.40;18.40;;;;;;4956088;29;20177;-72
2023/08/09 03:27:04;;;;;;;2.77;1.63;;;15.40;18.10;;;;;;4955880;28;20521;-72
2023/08/09 03:29:30;;;;;;;3.23;1.63;;;15.50;18.10;;;;;;4955986;29;20412;-72
2023/08/09 03:31:55;;;;;;;5.37;2.07;;;15.40;17.90;;;;;;4955652;29;20196;-72
2023/08/09 03:34:21;;;;;;;2.13;1.70;;;15.50;17.80;;;;;;4955870;29;20187;-72
2023/08/09 03:36:46;;;;;;;4.27;2.40;;;15.50;17.80;;;;;;4954922;28;20322;-72
2023/08/09 03:39:12;;;;;;;3.73;1.67;;;15.40;17.80;;;;;;4955802;29;20241;-72
2023/08/09 03:41:38;;;;;;;4.23;2.30;;;15.40;18.30;;;;;;4955233;29;20244;-72
2023/08/09 03:44:03;;;;;;;4.90;2.03;;;15.40;18.50;;;;;;4955840;29;20428;-72
2023/08/09 03:46:29;;;;;;;2.80;1.90;;;15.30;18.60;;;;;;4955581;29;20586;-72
2023/08/09 03:48:55;;;;;;;3.40;2.07;;;15.30;18.50;;;;;;4955761;29;20420;-72
2023/08/09 03:51:20;;;;;;;2.97;1.90;;;15.30;18.30;;;;;;4955513;29;20185;-72
2023/08/09 03:53:46;;;;;;;3.97;2.13;;;15.30;18.90;;;;;;4955221;29;20257;-72
2023/08/09 03:56:11;;;;;;;3.07;1.83;;;15.30;19.20;;;;;;4955412;29;20655;-72
2023/08/09 03:58:37;;;;;;;2.63;1.80;;;15.30;19.90;;;;;;4955475;29;20185;-72
2023/08/09 04:01:03;;;;;;;6.37;2.17;;;15.20;19.80;;;;;;4956500;29;20209;-72
2023/08/09 04:03:28;;;;;;;2.10;1.50;;;15.20;19.80;;;;;;4955461;29;20208;-72
2023/08/09 04:05:55;;;;;;;4.83;1.90;;;15.20;20.00;;;;;;4955329;29;20640;-72
2023/08/09 04:08:22;;;;;;;3.43;2.50;;;15.20;20.10;;;;;;4953955;29;20751;-72
2023/08/09 04:10:47;;;;;;;2.70;1.77;;;15.20;20.80;;;;;;4955074;29;20931;-72
2023/08/09 04:13:13;;;;;;;5.30;2.07;;;15.10;21.20;;;;;;4954843;29;20456;-72
2023/08/09 04:15:39;;;;;;;3.30;2.70;;;15.10;21.50;;;;;;4955196;29;20425;-72
2023/08/09 04:18:05;;;;;;;2.50;1.80;;;15.20;20.30;;;;;;4955116;29;20177;-72
2023/08/09 04:20:31;;;;;;;3.63;1.97;;;15.20;20.40;;;;;;4954866;29;20194;-71
2023/08/09 04:22:58;;;;;;;4.63;2.33;;;15.20;20.40;;;;;;4953483;29;21126;-72
2023/08/09 04:25:23;;;;;;;2.30;1.50;;;15.30;20.20;;;;;;4954753;29;20501;-72
2023/08/09 04:27:49;;;;;;;2.47;1.40;;;15.30;20.00;;;;;;4954835;29;20450;-72
2023/08/09 04:30:15;;;;;;;4.90;2.60;;;15.30;19.50;;;;;;4954848;29;20178;-72
2023/08/09 04:32:40;;;;;;;3.90;2.47;;;15.30;20.10;;;;;;4954572;29;20746;-72
2023/08/09 04:35:07;;;;;;;4.60;2.00;;;15.30;20.10;;;;;;4954754;29;20647;-72
2023/08/09 04:37:33;;;;;;;7.10;2.30;;;15.30;19.90;;;;;;4954669;29;20700;-72
2023/08/09 04:39:59;;;;;;;3.37;2.50;;;15.30;19.80;;;;;;4954101;28;20501;-72
2023/08/09 04:42:24;;;;;;;2.63;1.93;;;15.30;19.90;;;;;;4954121;29;20276;-72
2023/08/09 04:44:50;;;;;;;3.13;1.90;;;15.30;19.80;;;;;;4954564;29;20768;-72
2023/08/09 04:47:15;;;;;;;2.50;1.70;;;15.40;19.70;;;;;;4953196;29;20181;-72
2023/08/09 04:49:41;;;;;;;3.03;2.00;;;15.40;19.40;;;;;;4954582;29;20591;-72
2023/08/09 04:52:07;;;;;;;3.60;2.43;;;15.50;19.60;;;;;;4952786;29;20743;-72
2023/08/09 04:54:32;;;;;;;2.10;1.70;;;15.40;19.40;;;;;;4954289;29;20188;-72
2023/08/09 04:56:58;;;;;;;3.67;1.80;;;15.50;19.50;;;;;;4954367;29;20219;-72
2023/08/09 04:59:23;;;;;;;3.37;1.83;;;15.50;19.30;;;;;;4954404;29;20193;-72
2023/08/09 05:01:49;;;;;;;3.87;1.90;;;15.50;19.10;;;;;;4953892;29;20217;-72
2023/08/09 05:04:15;;;;;;;3.00;1.70;;;15.60;20.00;;;;;;4954219;29;20182;-72
2023/08/09 05:06:40;;;;;;;3.00;1.93;;;15.70;20.70;;;;;;4954184;29;20201;-72
2023/08/09 05:09:06;;;;;;;3.03;2.30;;;15.70;21.40;;;;;;4954083;29;20236;-72
2023/08/09 05:11:31;;;;;;;3.80;2.17;;;15.60;22.20;;;;;;4954136;29;20182;-72
2023/08/09 05:13:57;;;;;;;3.63;2.33;;;15.70;22.30;;;;;;4954089;29;20186;-72
2023/08/09 05:16:25;;;;;;;4.63;2.37;;;15.70;21.80;;;;;;4954161;29;20186;-72
2023/08/09 05:18:52;;;;;;;5.80;2.67;;;15.70;21.10;;;;;;4954041;29;20425;-72
2023/08/09 05:21:17;;;;;;;3.47;2.67;;;15.80;20.70;;;;;;4953760;29;20468;-72
2023/08/09 05:23:43;;;;;;;2.77;1.93;;;15.80;20.70;;;;;;4953748;29;20495;-71
2023/08/09 05:26:08;;;;;;;4.23;2.20;;;15.80;20.60;;;;;;4954154;29;20695;-72
2023/08/09 05:28:34;;;;;;;4.33;2.70;;;15.80;21.20;;;;;;4954159;29;20715;-73
2023/08/09 05:30:59;;;;;;;3.53;2.30;;;15.80;21.00;;;;;;4952680;29;20215;-72
2023/08/09 05:33:25;;;;;;;4.03;1.83;;;15.90;21.00;;;;;;4953588;29;20202;-72
2023/08/09 05:35:51;;;;;;;3.73;2.27;;;16.00;21.10;;;;;;4953957;29;20472;-72
2023/08/09 05:38:16;;;;;;;6.53;2.80;;;16.00;21.10;;;;;;4953920;29;20540;-72
2023/08/09 05:40:42;;;;;;;5.80;2.70;;;16.10;20.70;;;;;;4953763;29;20218;-74
2023/08/09 05:43:07;;;;;;;8.17;3.87;;;16.10;19.30;;;;;;4953756;29;20259;-72
2023/08/09 05:45:33;;;;;;;4.03;2.40;;;16.20;16.40;;;;;;4952984;29;20577;-72
2023/08/09 05:47:58;;;;;;;5.10;3.20;;;16.30;15.90;;;;;;4953745;29;20177;-73
2023/08/09 05:50:24;;;;;;;3.57;1.77;;;16.30;15.10;;;;;;4953716;28;20174;-73
2023/08/09 05:52:49;;;;;;;2.50;2.00;;;16.30;13.40;;;;;;4956678;29;20213;-72
2023/08/09 05:55:15;;;;;;;4.73;2.50;;;16.40;14.10;;;;;;4957652;29;20249;-72
2023/08/09 05:57:41;;;;;;;4.00;2.20;;;16.50;13.00;;;;;;4957943;29;20202;-72
2023/08/09 06:00:11;;;;;;;4.73;2.30;;;16.60;11.70;;;;;;4957515;29;20185;-73
2023/08/09 06:02:36;;;;;;;6.13;2.33;;;16.70;9.60;;;;;;4957185;29;20265;-73
2023/08/09 06:05:03;;;;;;;3.97;2.33;;;16.70;9.20;;;;;;4957362;29;20417;-73
2023/08/09 06:07:28;;;;;;;2.50;1.77;;;16.80;8.60;;;;;;4957334;29;20184;-73
2023/08/09 06:09:54;;;;;;;4.07;1.70;;;17.00;7.70;;;;;;4957300;29;20911;-72
2023/08/09 06:12:20;;;;;;;2.00;1.30;;;17.20;7.00;;;;;;4955714;29;20249;-72
2023/08/09 06:14:45;;;;;;;3.87;1.50;;;17.30;5.70;;;;;;4957372;29;20269;-73
2023/08/09 06:17:11;;;;;;;3.00;2.27;;;17.40;4.10;;;;;;4957250;29;20597;-73
2023/08/09 06:19:36;;;;;;;4.70;2.07;;;17.60;4.10;;;;;;4957179;29;20206;-73
2023/08/09 06:22:02;;;;;;;3.47;1.90;;;17.80;2.90;;;;;;4956670;29;20225;-72
2023/08/09 06:24:28;;;;;;;2.30;1.50;;;17.90;1.00;;;;;;4956070;29;20525;-73
2023/08/09 06:26:54;;;;;;;2.10;1.73;;;18.10;1.10;;;;;;4956967;29;20181;-73
2023/08/09 06:29:19;;;;;;;2.60;2.03;;;18.30;1.00;;;;;;4955755;29;20461;-72
2023/08/09 06:31:45;;;;;;;4.43;1.70;;;18.50;1.00;;;;;;4957132;29;20433;-73
2023/08/09 06:34:12;;;;;;;2.90;2.10;;;18.50;1.00;;;;;;4957575;29;20208;-74
2023/08/09 06:36:38;;;;;;;5.10;1.87;;;18.50;1.00;;;;;;4957081;29;20681;-72
2023/08/09 06:39:03;;;;;;;2.57;1.60;;;18.60;1.00;;;;;;4955478;29;20449;-73
2023/08/09 06:41:29;;;;;;;3.17;2.10;;;18.80;1.00;;;;;;4956469;29;20297;-72
2023/08/09 06:43:55;;;;;;;6.27;2.27;;;18.90;1.00;;;;;;4956647;29;20225;-73
2023/08/09 06:46:20;;;;;;;2.47;1.83;;;19.00;1.00;;;;;;4956717;29;20170;-73
2023/08/09 06:48:46;;;;;;;5.50;1.90;;;19.10;1.00;;;;;;4955508;29;20644;-73
2023/08/09 06:51:12;;;;;;;2.80;1.80;;;19.20;1.00;;;;;;4956526;29;20781;-73
2023/08/09 06:53:37;;;;;;;3.03;1.97;;;19.10;1.00;;;;;;4956171;29;20261;-73
2023/08/09 06:56:03;;;;;;;3.53;2.23;;;19.30;1.00;;;;;;4955267;29;20182;-73
2023/08/09 06:58:28;;;;;;;2.10;1.40;;;19.40;1.00;;;;;;4956426;29;20261;-72
2023/08/09 07:00:54;;;;;;;3.63;2.73;;;19.60;1.00;;;;;;4955061;29;20249;-73
2023/08/09 07:03:20;;;;;;;2.77;2.07;;;19.70;1.00;;;;;;4955536;28;20194;-73
2023/08/09 07:05:46;;;;;;;2.50;2.10;;;19.60;1.00;;;;;;4956200;29;20178;-72
2023/08/09 07:08:11;;;;;;;3.87;1.97;;;19.50;1.00;;;;;;4956402;29;20440;-72
2023/08/09 07:10:37;;;;;;;2.87;1.73;;;19.30;1.00;;;;;;4956450;29;20182;-73
2023/08/09 07:13:03;;;;;;;7.70;2.30;;;19.30;1.00;;;;;;4956056;29;20731;-73
2023/08/09 07:15:28;;;;;;;2.87;1.90;;;19.30;1.00;;;;;;4956124;29;20670;-72
2023/08/09 07:17:54;;;;;;;4.27;2.23;;;19.50;1.00;;;;;;4956070;29;20206;-72
2023/08/09 07:20:20;;;;;;;4.13;2.00;;;19.60;1.00;;;;;;4956247;29;20174;-73
2023/08/09 07:22:46;;;;;;;2.80;2.03;;;19.70;1.00;;;;;;4986683;23;20248;-71
2023/08/09 07:25:16;;;;;;;3.33;2.00;;;19.60;1.00;;;;;;4975557;28;20713;-71
2023/08/09 07:27:44;;;;;;;3.77;2.50;;;19.60;1.00;;;;;;4973998;28;20960;-71
2023/08/09 07:30:11;;;;;;;3.20;2.20;;;19.50;1.00;;;;;;4975398;28;20436;-71
2023/08/09 07:32:38;;;;;;;2.43;1.97;;;19.50;1.00;;;;;;4974928;28;20425;-70
2023/08/09 07:35:05;;;;;;;3.23;2.17;;;19.50;1.00;;;;;;4975125;28;20762;-71
2023/08/09 07:37:31;;;;;;;2.80;2.20;;;19.40;1.00;;;;;;4973880;28;20460;-70
2023/08/09 07:39:56;;;;;;;5.60;2.37;;;19.40;1.00;;;;;;4975139;28;21020;-71
2023/08/09 07:42:22;;;;;;;3.63;2.00;;;19.40;1.00;;;;;;4974738;28;20693;-71
2023/08/09 07:44:47;;;;;;;4.17;2.00;;;19.20;1.00;;;;;;4975054;28;20537;-71
2023/08/09 07:47:13;;;;;;;6.50;1.93;;;19.20;1.00;;;;;;4975039;28;20729;-70
2023/08/09 07:49:39;;;;;;;2.30;1.70;;;19.20;1.00;;;;;;4974836;28;20174;-70
2023/08/09 07:52:04;;;;;;;2.67;2.10;;;19.10;1.00;;;;;;4974445;28;20220;-70
2023/08/09 07:54:30;;;;;;;3.10;2.10;;;19.10;1.00;;;;;;4974960;28;20188;-71
2023/08/09 07:56:55;;;;;;;3.00;1.77;;;19.20;1.00;;;;;;4974899;28;20240;-70
2023/08/09 07:59:21;;;;;;;3.00;2.20;;;19.30;1.00;;;;;;4974841;28;20590;-71
2023/08/09 08:01:47;;;;;;;2.80;1.90;;;19.40;1.00;;;;;;4973249;28;20605;-71
2023/08/09 08:04:12;;;;;;;1.90;1.20;;;19.40;1.00;;;;;;4973514;28;20221;-72
2023/08/09 08:06:38;;;;;;;2.90;1.73;;;19.40;1.00;;;;;;4974512;28;20228;-71
2023/08/09 08:09:04;;;;;;;2.40;1.70;;;19.20;1.00;;;;;;4974377;28;20173;-70
2023/08/09 08:11:30;;;;;;;3.00;1.83;;;19.40;1.00;;;;;;4974339;28;20181;-71
2023/08/09 08:13:56;;;;;;;3.67;2.10;;;19.30;1.00;;;;;;4972234;28;20449;-70
2023/08/09 08:16:23;;;;;;;3.47;2.07;;;19.30;1.00;;;;;;4974279;28;20662;-71
2023/08/09 08:18:49;;;;;;;2.70;1.83;;;19.50;1.00;;;;;;4974731;28;20910;-71
2023/08/09 08:21:14;;;;;;;2.90;1.93;;;19.50;1.00;;;;;;4972821;28;20460;-71
2023/08/09 08:23:40;;;;;;;2.53;2.23;;;19.50;1.00;;;;;;4972654;28;20583;-70
2023/08/09 08:26:05;;;;;;;2.13;1.77;;;19.50;1.00;;;;;;4974196;28;20181;-71
2023/08/09 08:28:31;;;;;;;4.10;2.07;;;19.60;1.00;;;;;;4974150;28;20180;-71
2023/08/09 08:30:57;;;;;;;2.20;1.60;;;19.90;1.00;;;;;;4974160;28;20177;-70
2023/08/09 08:33:23;;;;;;;5.03;2.33;;;20.30;1.00;;;;;;4973610;28;20275;-70
2023/08/09 08:35:49;;;;;;;3.80;1.80;;;20.60;1.00;;;;;;4974024;28;20256;-70
2023/08/09 08:38:16;;;;;;;4.20;2.40;;;20.90;1.00;;;;;;4973807;28;20420;-70
2023/08/09 08:40:43;;;;;;;3.23;2.67;;;21.10;1.00;;;;;;4973852;28;20814;-70
2023/08/09 08:43:08;;;;;;;5.53;2.03;;;21.70;1.00;;;;;;4973356;28;20440;-71
2023/08/09 08:45:38;;;;;;;2.40;2.07;;;22.30;1.00;;;;;;4974235;28;20413;-71
2023/08/09 08:48:08;;;;;;;2.60;2.40;;;22.70;1.00;;;;;;4973801;28;20173;-71
2023/08/09 08:50:37;;;;;;;2.77;2.37;;;23.10;1.00;;;;;;4973884;28;20930;-72
2023/08/09 08:53:04;;;;;;;2.70;2.20;;;23.40;1.00;;;;;;4973507;28;20483;-71
2023/08/09 08:55:30;;;;;;;2.77;2.40;;;23.70;1.00;;;;;;4973987;28;20826;-73
2023/08/09 08:57:56;;;;;;;3.43;3.07;;;24.40;1.00;;;;;;4974191;28;20441;-72
2023/08/09 09:00:22;;;;;;;3.50;2.90;;;24.40;1.00;;;;;;4974406;28;20933;-73
2023/08/09 09:02:49;;;;;;;3.63;3.00;;;24.70;1.00;;;;;;4974262;28;20559;-72
2023/08/09 09:05:16;;;;;;;3.80;3.27;;;24.90;1.00;;;;;;4973987;28;20413;-72
2023/08/09 09:07:42;;;;;;;2.80;2.57;;;24.60;1.00;;;;;;4973956;28;20441;-72
2023/08/09 09:10:12;;;;;;;3.10;2.80;;;24.30;1.00;;;;;;4974753;28;20761;-72
2023/08/09 09:12:39;;;;;;;4.00;2.97;;;23.70;1.00;;;;;;4971950;28;20212;-72
2023/08/09 09:15:06;;;;;;;3.27;3.00;;;23.50;1.00;;;;;;4972035;28;20429;-72
2023/08/09 09:17:39;;;;;;;3.33;3.03;;;22.80;1.00;;;;;;4973425;28;20417;-72
2023/08/09 09:20:33;;;;;;;4.73;3.20;;;22.60;1.00;;;;;;4973258;28;20417;-72
2023/08/09 09:22:59;;;;;;;5.00;3.00;;;22.30;1.00;;;;;;4972882;28;21036;-72
2023/08/09 09:25:25;;;;;;;3.40;3.10;;;22.30;1.00;;;;;;4973100;28;20503;-71
2023/08/09 09:27:56;;;;;;;5.70;2.20;;;22.60;1.00;;;;;;4973224;28;20204;-72
2023/08/09 09:30:24;;;;;;;3.00;2.80;;;23.00;1.00;;;;;;4973246;28;20623;-72
2023/08/09 09:32:52;;;;;;;3.20;2.90;;;22.80;1.00;;;;;;4972885;28;20458;-72
2023/08/09 09:35:19;;;;;;;4.20;3.10;;;22.70;1.00;;;;;;4973165;28;20853;-71
2023/08/09 09:37:48;;;;;;;3.13;2.83;;;23.10;1.00;;;;;;4973004;28;20424;-70
2023/08/09 09:40:31;;;;;;;3.30;2.70;;;23.40;1.00;;;;;;4973195;28;20432;-70
2023/08/09 09:42:58;;;;;;;5.70;2.80;;;23.00;1.00;;;;;;4972677;28;20459;-72
2023/08/09 09:45:27;;;;;;;3.87;3.10;;;23.20;1.00;;;;;;4973022;28;20843;-71
2023/08/09 09:47:54;;;;;;;4.23;2.70;;;22.90;1.00;;;;;;4972999;28;20413;-71
2023/08/09 09:50:25;;;;;;;2.37;2.17;;;22.50;1.00;;;;;;4972868;28;20412;-72
2023/08/09 09:52:51;;;;;;;3.70;3.13;;;22.40;1.00;;;;;;4972471;28;20432;-71
2023/08/09 09:55:20;;;;;;;2.60;2.40;;;22.30;1.00;;;;;;4972839;28;20404;-71
2023/08/09 09:57:46;;;;;;;2.90;2.70;;;22.30;1.00;;;;;;4972960;28;20445;-71
2023/08/09 10:00:14;;;;;;;3.37;3.07;;;22.60;1.00;;;;;;4972873;28;20423;-72
2023/08/09 10:02:47;;;;;;;3.07;2.87;;;22.80;1.00;;;;;;4972461;28;20516;-72
2023/08/09 10:05:15;;;;;;;3.10;2.90;;;22.80;1.00;;;;;;4972745;28;20455;-71
2023/08/09 10:07:42;;;;;;;4.83;2.90;;;22.80;1.00;;;;;;4972809;28;20471;-71
2023/08/09 10:10:08;;;;;;;6.63;3.10;;;23.10;1.00;;;;;;4972918;28;20479;-71
2023/08/09 10:12:35;;;;;;;3.23;2.93;;;23.50;1.00;;;;;;4972524;28;20965;-72
2023/08/09 10:15:04;;;;;;;2.90;2.70;;;23.70;1.00;;;;;;4971513;28;20567;-71
2023/08/09 10:17:32;;;;;;;3.67;3.30;;;23.40;1.00;;;;;;4972632;28;20784;-72
2023/08/09 10:20:00;;;;;;;3.30;3.00;;;23.30;1.00;;;;;;4972744;28;20408;-71
2023/08/09 10:22:26;;;;;;;3.43;3.13;;;22.70;1.00;;;;;;4972238;28;20826;-71
2023/08/09 10:24:56;;;;;;;3.87;2.90;;;22.40;1.00;;;;;;4972741;28;20417;-72
2023/08/09 10:27:49;;;;;;;3.20;2.90;;;22.20;1.00;;;;;;4972578;28;20405;-70
2023/08/09 10:30:15;;;;;;;5.13;2.90;;;22.00;1.00;;;;;;4972636;28;20413;-71
2023/08/09 10:32:49;;;;;;;3.80;3.17;;;22.20;1.00;;;;;;4972374;28;20752;-71
2023/08/09 10:35:41;;;;;;;4.67;2.90;;;22.50;1.00;;;;;;4972820;28;20933;-71
2023/08/09 10:38:07;;;;;;;3.57;2.70;;;23.00;1.00;;;;;;4973157;28;20567;-70
2023/08/09 10:40:36;;;;;;;2.70;2.50;;;23.50;1.00;;;;;;4975827;28;20448;-71
2023/08/09 10:43:02;;;;;;;3.27;2.97;;;23.80;1.00;;;;;;4975708;28;20439;-71
2023/08/09 10:45:31;;;;;;;3.80;3.10;;;24.10;1.00;;;;;;4975930;28;20906;-70
2023/08/09 10:48:35;;;;;;;3.67;2.80;;;24.00;1.00;;;;;;4975966;28;20224;-71
2023/08/09 10:51:07;;;;;;;4.60;3.10;;;24.20;1.00;;;;;;4975151;28;20436;-72
2023/08/09 10:53:49;;;;;;;2.90;2.60;;;24.30;1.00;;;;;;4976007;28;20528;-70
2023/08/09 10:56:27;;;;;;;3.80;3.47;;;24.20;1.00;;;;;;4975807;28;20404;-72
2023/08/09 10:58:53;;;;;;;2.87;2.67;;;24.40;1.00;;;;;;4975686;28;20489;-71
2023/08/09 11:01:19;;;;;;;6.30;3.60;;;23.90;1.00;;;;;;4975545;28;20586;-71
2023/08/09 11:03:45;;;;;;;3.63;3.33;;;23.90;1.00;;;;;;4975453;28;20193;-70
2023/08/09 11:06:10;;;;;;;3.73;3.00;;;24.20;1.00;;;;;;4975611;28;20420;-70
2023/08/09 11:08:36;;;;;;;3.07;2.80;;;24.40;1.00;;;;;;4975704;28;20251;-69
2023/08/09 11:11:02;;;;;;;3.57;3.27;;;24.80;1.00;;;;;;4975581;28;20185;-71
2023/08/09 11:13:29;;;;;;;4.50;3.20;;;24.70;1.00;;;;;;4975186;28;20201;-71
2023/08/09 11:15:55;;;;;;;5.17;3.00;;;24.70;1.00;;;;;;4975398;28;20177;-71
2023/08/09 11:18:20;;;;;;;2.60;2.37;;;24.50;1.00;;;;;;4975370;28;20447;-70
2023/08/09 11:20:46;;;;;;;4.83;3.23;;;24.80;1.00;;;;;;4974056;28;20177;-72
2023/08/09 11:23:13;;;;;;;3.23;2.87;;;25.20;1.00;;;;;;4973589;28;20212;-71
2023/08/09 11:25:41;;;;;;;4.70;3.50;;;25.00;1.00;;;;;;4975406;28;20418;-72
2023/08/09 11:28:11;;;;;;;4.10;3.80;;;24.90;1.00;;;;;;4973903;28;20424;-71
2023/08/09 11:30:38;;;;;;;3.17;2.87;;;24.60;1.00;;;;;;4973918;28;20412;-72
2023/08/09 11:33:05;;;;;;;9.03;3.63;;;24.70;1.00;;;;;;4974891;28;20428;-71
2023/08/09 11:35:36;;;;;;;3.23;2.93;;;24.70;1.00;;;;;;4973666;28;20417;-71
2023/08/09 11:38:09;;;;;;;3.33;2.93;;;25.00;1.00;;;;;;4974935;28;20781;-72
2023/08/09 11:40:47;;;;;;;3.27;3.03;;;25.50;1.00;;;;;;4974964;28;20456;-71
2023/08/09 11:43:15;;;;;;;6.93;3.20;;;25.50;1.00;;;;;;4974539;28;20802;-71
2023/08/09 11:45:55;;;;;;;3.93;3.33;;;25.50;1.00;;;;;;4974826;28;20516;-72
2023/08/09 11:48:28;;;;;;;2.77;2.57;;;25.10;1.00;;;;;;4974143;28;20906;-72
2023/08/09 11:51:05;;;;;;;5.10;3.20;;;25.20;1.00;;;;;;4974461;28;20513;-71
2023/08/09 11:53:33;;;;;;;3.50;3.20;;;25.20;1.00;;;;;;4973030;28;20490;-72
2023/08/09 11:56:04;;;;;;;4.10;3.30;;;25.20;1.00;;;;;;4974754;28;20436;-71
2023/08/09 11:58:35;;;;;;;3.43;3.13;;;25.00;1.00;;;;;;4973266;28;20468;-71
2023/08/09 12:01:21;;;;;;;7.37;3.47;;;24.70;1.00;;;;;;4974300;28;20556;-71
2023/08/09 12:03:49;;;;;;;3.50;3.30;;;24.90;1.00;;;;;;4973914;28;20528;-72
2023/08/09 12:06:17;;;;;;;3.63;3.33;;;25.10;1.00;;;;;;4974636;28;20784;-73
2023/08/09 12:08:42;;;;;;;3.03;2.83;;;25.50;1.00;;;;;;4974530;28;20826;-72
2023/08/09 12:11:08;;;;;;;3.00;2.80;;;25.50;1.00;;;;;;4974316;28;20503;-71
2023/08/09 12:13:33;;;;;;;2.93;2.63;;;25.50;1.00;;;;;;4974104;28;20204;-72
2023/08/09 12:16:00;;;;;;;3.47;3.17;;;25.60;1.00;;;;;;4974416;28;20217;-72
2023/08/09 12:18:26;;;;;;;3.13;2.93;;;25.50;1.00;;;;;;4974198;28;20185;-72
2023/08/09 12:20:54;;;;;;;3.60;3.30;;;25.40;1.00;;;;;;4974175;28;20452;-73
2023/08/09 12:23:19;;;;;;;3.50;3.20;;;25.20;1.00;;;;;;4973807;28;20778;-72
2023/08/09 12:25:45;;;;;;;3.93;3.63;;;25.50;1.00;;;;;;4974165;28;20544;-73
2023/08/09 12:28:10;;;;;;;3.27;3.03;;;26.10;1.00;;;;;;4974365;28;20197;-70
2023/08/09 12:30:37;;;;;;;4.10;3.67;;;26.50;1.00;;;;;;4974106;28;20199;-71
2023/08/09 12:33:03;;;;;;;5.40;3.13;;;26.40;1.00;;;;;;4973636;28;20543;-71
2023/08/09 12:35:28;;;;;;;3.53;3.07;;;26.10;1.00;;;;;;4974268;28;20433;-71
2023/08/09 12:37:54;;;;;;;3.40;3.03;;;26.30;1.00;;;;;;4975251;28;20429;-72
2023/08/09 12:40:19;;;;;;;3.90;3.50;;;26.70;1.00;;;;;;4973847;28;20189;-71
2023/08/09 12:42:45;;;;;;;3.50;3.20;;;27.00;1.00;;;;;;4973445;28;20331;-71
2023/08/09 12:45:11;;;;;;;3.40;3.20;;;26.70;1.00;;;;;;4973753;28;20528;-70
2023/08/09 12:47:37;;;;;;;8.37;3.60;;;26.50;1.00;;;;;;4973521;28;20636;-71
2023/08/09 12:50:02;;;;;;;4.47;4.07;;;26.60;1.00;;;;;;4973575;28;20424;-71
2023/08/09 12:52:28;;;;;;;3.17;2.93;;;26.10;1.00;;;;;;4973287;28;20197;-72